Time;durP1;ratioP1;P1;durP2;ratioP2;P2;SDS_P1;SDS_P2;PMS_P1;PMS_P2;Temp;Humidity;BMP_temperature;BMP_pressure;BME280_temperature;BME280_humidity;BME280_pressure;Samples;Min_cycle;Max_cycle;Signal;HPM_P1;HPM_P2
2023/10/09 00:01:09;;;;;;;129.48;122.63;;;18.20;99.90;;;;;;4962208;28;20042;-72
2023/10/09 00:03:36;;;;;;;104.45;98.75;;;18.10;99.90;;;;;;4968648;28;20051;-71
2023/10/09 00:06:04;;;;;;;92.28;87.50;;;18.10;99.90;;;;;;4972000;28;20023;-71
2023/10/09 00:08:30;;;;;;;85.95;81.50;;;18.00;99.90;;;;;;4973163;28;20511;-72
2023/10/09 00:10:59;;;;;;;89.93;84.57;;;18.00;99.90;;;;;;4972968;28;20050;-71
2023/10/09 00:13:30;;;;;;;85.78;81.13;;;18.00;99.90;;;;;;4965449;28;20054;-72
2023/10/09 00:16:01;;;;;;;84.47;79.88;;;18.00;99.90;;;;;;4961756;28;20054;-72
2023/10/09 00:18:33;;;;;;;89.05;84.32;;;18.00;99.90;;;;;;4973123;28;20043;-71
2023/10/09 00:21:12;;;;;;;88.10;83.32;;;18.10;99.90;;;;;;4970924;28;20054;-72
2023/10/09 00:23:41;;;;;;;90.75;85.72;;;18.00;99.90;;;;;;4972521;28;20428;-72
2023/10/09 00:26:12;;;;;;;88.93;83.72;;;18.00;99.90;;;;;;4965035;28;20046;-72
2023/10/09 00:28:43;;;;;;;86.57;81.80;;;17.90;99.90;;;;;;4970466;28;20077;-71
2023/10/09 00:31:15;;;;;;;79.32;74.82;;;17.90;99.90;;;;;;4972426;28;20082;-72
2023/10/09 00:33:44;;;;;;;79.20;75.10;;;17.80;99.90;;;;;;4973241;28;20050;-71
2023/10/09 00:36:12;;;;;;;78.97;74.38;;;17.80;99.90;;;;;;4968683;28;20032;-72
2023/10/09 00:38:45;;;;;;;81.60;77.22;;;17.90;99.90;;;;;;4954664;28;20408;-72
2023/10/09 00:41:19;;;;;;;82.63;78.18;;;17.80;99.90;;;;;;4978119;28;20400;-72
2023/10/09 00:43:45;;;;;;;82.63;78.10;;;17.80;99.90;;;;;;4954343;28;20054;-72
2023/10/09 00:46:29;;;;;;;82.28;77.63;;;17.80;99.90;;;;;;4962217;28;20041;-71
2023/10/09 00:49:02;;;;;;;84.72;80.30;;;17.70;99.90;;;;;;4972184;28;20046;-71
2023/10/09 00:51:34;;;;;;;78.03;73.93;;;17.80;99.90;;;;;;4961946;28;20047;-71
2023/10/09 00:54:13;;;;;;;69.45;65.50;;;17.80;99.90;;;;;;4965706;28;20050;-72
2023/10/09 00:56:41;;;;;;;68.72;64.80;;;17.80;99.90;;;;;;4972395;28;20049;-72
2023/10/09 00:59:14;;;;;;;78.90;74.55;;;17.80;99.90;;;;;;4969463;28;20352;-71
2023/10/09 01:01:45;;;;;;;84.30;79.72;;;17.80;99.90;;;;;;4959739;28;20400;-69
2023/10/09 01:04:17;;;;;;;83.20;78.75;;;17.80;99.90;;;;;;4968883;28;20054;-71
2023/10/09 01:06:44;;;;;;;78.80;74.10;;;17.60;99.90;;;;;;4961774;28;20042;-71
2023/10/09 01:09:14;;;;;;;91.82;86.65;;;17.50;99.90;;;;;;4971316;28;20043;-71
2023/10/09 01:11:48;;;;;;;90.60;85.38;;;17.50;99.90;;;;;;4971986;28;20046;-70
2023/10/09 01:14:15;;;;;;;92.63;87.60;;;17.50;99.90;;;;;;4971828;28;20385;-71
2023/10/09 01:16:42;;;;;;;79.88;75.43;;;17.40;99.90;;;;;;4963175;28;20050;-71
2023/10/09 01:19:23;;;;;;;92.55;87.63;;;17.50;99.90;;;;;;4972828;28;20050;-71
2023/10/09 01:21:52;;;;;;;85.95;81.47;;;17.50;99.90;;;;;;4971871;28;20051;-71
2023/10/09 01:24:22;;;;;;;92.15;87.32;;;17.60;99.90;;;;;;4971928;28;20042;-71
2023/10/09 01:26:49;;;;;;;86.93;81.95;;;17.50;99.90;;;;;;4970209;28;20058;-71
2023/10/09 01:29:21;;;;;;;106.70;101.32;;;17.40;99.90;;;;;;4966924;28;20118;-71
2023/10/09 01:31:54;;;;;;;86.13;81.60;;;17.50;99.90;;;;;;4971200;28;20034;-71
2023/10/09 01:34:24;;;;;;;117.03;110.82;;;17.50;99.90;;;;;;4971871;28;20039;-70
2023/10/09 01:36:54;;;;;;;128.00;121.55;;;17.30;99.90;;;;;;4974565;28;20027;-72
2023/10/09 01:39:40;;;;;;;115.47;109.47;;;17.30;99.90;;;;;;4976299;28;20054;-72
2023/10/09 01:42:06;;;;;;;120.40;113.97;;;17.20;99.90;;;;;;4974662;28;20042;-71
2023/10/09 01:44:35;;;;;;;156.45;148.38;;;17.20;99.90;;;;;;4975934;28;20046;-71
2023/10/09 01:47:07;;;;;;;143.13;135.70;;;17.20;99.90;;;;;;4963202;28;20043;-71
2023/10/09 01:49:41;;;;;;;163.15;154.30;;;17.20;99.90;;;;;;4974646;28;20039;-72
2023/10/09 01:52:09;;;;;;;109.70;103.95;;;17.20;99.90;;;;;;4971110;28;20055;-71
2023/10/09 01:54:38;;;;;;;121.63;115.10;;;17.20;99.90;;;;;;4970453;28;20051;-71
2023/10/09 01:57:12;;;;;;;114.10;107.75;;;17.30;99.90;;;;;;4960802;28;20047;-71
2023/10/09 01:59:43;;;;;;;140.27;133.15;;;17.20;99.90;;;;;;4974533;28;20066;-71
2023/10/09 02:05:10;;;;;;;84.90;80.53;;;17.00;99.90;;;;;;4978373;28;20034;-71
2023/10/09 02:07:52;;;;;;;80.93;76.63;;;16.90;99.90;;;;;;4976570;28;20511;-72
2023/10/09 02:12:57;;;;;;;83.25;78.90;;;16.80;99.90;;;;;;4981376;28;20035;-71
2023/10/09 02:18:18;;;;;;;78.03;73.85;;;16.80;99.90;;;;;;4972031;28;20061;-71
2023/10/09 02:20:45;;;;;;;70.35;66.18;;;16.70;99.90;;;;;;4970610;28;20050;-71
2023/10/09 02:23:13;;;;;;;94.78;89.60;;;16.80;99.90;;;;;;4973492;28;20043;-71
2023/10/09 02:25:43;;;;;;;90.40;85.70;;;16.70;99.90;;;;;;4971396;28;20032;-71
2023/10/09 02:28:17;;;;;;;66.75;62.85;;;16.70;99.90;;;;;;4963925;28;20035;-71
2023/10/09 02:30:47;;;;;;;69.22;65.43;;;16.80;99.90;;;;;;4973871;28;20035;-71
2023/10/09 02:33:20;;;;;;;70.97;66.72;;;16.90;99.90;;;;;;4973655;28;20051;-71
2023/10/09 02:35:51;;;;;;;66.38;62.50;;;16.90;99.90;;;;;;4957977;28;20039;-71
2023/10/09 02:38:17;;;;;;;62.30;58.58;;;16.80;99.90;;;;;;4974447;28;20058;-71
2023/10/09 02:43:34;;;;;;;55.13;52.10;;;16.70;99.90;;;;;;4969319;28;20104;-72
2023/10/09 02:46:18;;;;;;;64.03;60.50;;;16.70;99.90;;;;;;4961595;28;20040;-71
2023/10/09 02:48:52;;;;;;;59.40;55.58;;;16.80;99.90;;;;;;4960938;28;20400;-71
2023/10/09 02:53:56;;;;;;;73.72;69.50;;;16.60;99.90;;;;;;4958924;28;20035;-71
2023/10/09 02:56:36;;;;;;;60.58;57.20;;;16.60;99.90;;;;;;4962180;28;20031;-70
2023/10/09 02:59:08;;;;;;;59.00;55.65;;;16.70;99.90;;;;;;4969081;28;20055;-71
2023/10/09 03:01:35;;;;;;;77.13;72.68;;;16.70;99.90;;;;;;4964924;28;20046;-71
2023/10/09 03:04:02;;;;;;;81.03;76.57;;;16.60;99.90;;;;;;4972418;28;20023;-71
2023/10/09 03:06:31;;;;;;;80.55;76.13;;;16.50;99.90;;;;;;4965220;28;20066;-71
2023/10/09 03:08:57;;;;;;;74.80;70.78;;;16.40;99.90;;;;;;4973692;28;20511;-71
2023/10/09 03:11:26;;;;;;;70.95;67.00;;;16.40;99.90;;;;;;4973665;28;20073;-72
2023/10/09 03:13:53;;;;;;;80.45;76.25;;;16.40;99.90;;;;;;4974860;28;20042;-71
2023/10/09 03:16:19;;;;;;;82.57;78.03;;;16.30;99.90;;;;;;4973355;28;20161;-71
2023/10/09 03:18:54;;;;;;;63.55;59.88;;;16.30;99.90;;;;;;4973625;28;20039;-71
2023/10/09 03:21:20;;;;;;;67.40;63.65;;;16.30;99.90;;;;;;4968146;28;20360;-71
2023/10/09 03:23:50;;;;;;;56.42;53.40;;;16.30;99.90;;;;;;4967809;28;20031;-71
2023/10/09 03:26:20;;;;;;;56.38;53.25;;;16.40;99.90;;;;;;4965660;28;20034;-71
2023/10/09 03:28:47;;;;;;;69.37;65.77;;;16.30;99.90;;;;;;4973242;28;20058;-72
2023/10/09 03:31:13;;;;;;;60.88;57.58;;;16.40;99.90;;;;;;4964663;28;20284;-71
2023/10/09 03:33:40;;;;;;;57.00;53.92;;;16.30;99.90;;;;;;4970790;28;20396;-71
2023/10/09 03:36:09;;;;;;;55.40;52.25;;;16.30;99.90;;;;;;4965714;28;20047;-71
2023/10/09 03:38:38;;;;;;;51.97;49.33;;;16.20;99.90;;;;;;4970238;28;20392;-71
2023/10/09 03:41:09;;;;;;;58.17;54.95;;;16.20;99.90;;;;;;4962171;28;20043;-71
2023/10/09 03:43:40;;;;;;;55.58;52.63;;;16.30;99.90;;;;;;4974414;28;20043;-71
2023/10/09 03:46:26;;;;;;;52.50;49.42;;;16.30;99.90;;;;;;4969048;28;20046;-71
2023/10/09 03:48:56;;;;;;;51.35;48.58;;;16.30;99.90;;;;;;4972614;28;20043;-71
2023/10/09 03:51:22;;;;;;;54.88;52.03;;;16.20;99.90;;;;;;4963780;28;20485;-71
2023/10/09 03:53:48;;;;;;;51.28;48.65;;;16.20;99.90;;;;;;4955382;28;20487;-71
2023/10/09 03:56:17;;;;;;;57.30;53.97;;;16.10;99.90;;;;;;4964022;28;20051;-71
2023/10/09 03:58:45;;;;;;;53.08;50.40;;;16.10;99.90;;;;;;4971318;28;20065;-71
2023/10/09 04:01:39;;;;;;;52.72;49.72;;;16.00;99.90;;;;;;4970762;28;20050;-71
2023/10/09 04:04:10;;;;;;;47.92;45.45;;;16.10;99.90;;;;;;4961732;28;20043;-71
2023/10/09 04:06:37;;;;;;;56.15;53.17;;;16.00;99.90;;;;;;4964335;28;20519;-72
2023/10/09 04:11:47;;;;;;;51.72;48.85;;;16.00;99.90;;;;;;4979564;28;20045;-71
2023/10/09 04:14:24;;;;;;;53.05;50.08;;;16.00;99.90;;;;;;4968504;28;20043;-71
2023/10/09 04:17:33;;;;;;;62.40;59.00;;;16.00;99.90;;;;;;4973302;28;20514;-71
2023/10/09 04:23:35;;;;;;;67.47;63.78;;;15.90;99.90;;;;;;4970631;28;20041;-71
2023/10/09 04:25:38;;;;;;;74.22;70.20;;;16.00;99.90;;;;;;4974724;28;20074;-71
2023/10/09 04:28:18;;;;;;;74.20;70.30;;;16.00;99.90;;;;;;4959336;28;20038;-71
2023/10/09 04:30:46;;;;;;;77.07;72.95;;;15.90;99.90;;;;;;4961973;28;20050;-71
2023/10/09 04:36:21;;;;;;;66.07;62.30;;;15.90;99.90;;;;;;4974147;28;20023;-74
2023/10/09 04:44:19;;;;;;;56.15;52.35;;;16.00;99.90;;;;;;4957960;28;20038;-71
2023/10/09 04:49:45;;;;;;;45.65;42.90;;;15.90;99.90;;;;;;4977152;28;20041;-71
2023/10/09 04:52:30;;;;;;;64.80;60.83;;;15.90;99.90;;;;;;4973274;28;20063;-71
2023/10/09 04:55:19;;;;;;;62.67;59.25;;;15.80;99.90;;;;;;4973196;28;20266;-70
2023/10/09 04:57:46;;;;;;;57.38;53.88;;;15.80;99.90;;;;;;4973265;28;20047;-71
2023/10/09 05:02:54;;;;;;;54.13;50.95;;;15.80;99.90;;;;;;4980194;28;20019;-71
2023/10/09 05:08:19;;;;;;;55.25;52.10;;;15.60;99.90;;;;;;4968460;28;20042;-71
2023/10/09 05:16:28;;;;;;;55.00;51.78;;;15.60;99.90;;;;;;4960390;28;20507;-71
2023/10/09 05:18:56;;;;;;;54.03;51.03;;;15.50;99.90;;;;;;4977858;28;20043;-71
2023/10/09 05:29:19;;;;;;;52.05;48.95;;;15.40;99.90;;;;;;4960182;28;20383;-71
2023/10/09 05:34:34;;;;;;;50.92;47.70;;;15.30;99.90;;;;;;4979490;28;20053;-71
2023/10/09 05:42:44;;;;;;;47.92;44.72;;;15.30;99.90;;;;;;4936464;29;20074;-71
2023/10/09 05:50:34;;;;;;;44.50;41.60;;;15.30;99.90;;;;;;4938856;29;20043;-71
2023/10/09 06:04:15;;;;;;;46.00;43.28;;;15.20;99.90;;;;;;4866948;29;20054;-71
2023/10/09 06:06:45;;;;;;;50.03;46.53;;;15.10;99.90;;;;;;4872998;29;20060;-71
2023/10/09 06:24:23;;;;;;;40.28;37.72;;;15.00;99.90;;;;;;4884627;29;20037;-71
2023/10/09 06:29:37;;;;;;;44.10;41.08;;;15.00;99.90;;;;;;4878027;29;20032;-71
2023/10/09 06:35:14;;;;;;;;;;;15.20;99.90;;;;;;4929612;29;20051;-72
2023/10/09 06:38:10;;;;;;;43.08;40.13;;;15.20;99.90;;;;;;4951018;28;19910;-72
2023/10/09 06:43:15;;;;;;;45.42;42.50;;;15.20;99.90;;;;;;4952175;28;20030;-72
2023/10/09 06:45:43;;;;;;;45.50;42.67;;;15.20;99.90;;;;;;4952145;28;20035;-72
2023/10/09 06:50:56;;;;;;;46.28;43.13;;;15.20;99.90;;;;;;4977372;28;20033;-72
2023/10/09 06:53:28;;;;;;;46.72;43.83;;;15.20;99.90;;;;;;4967018;28;20059;-72
2023/10/09 06:56:06;;;;;;;47.67;44.47;;;15.30;99.90;;;;;;4967355;28;20030;-72
2023/10/09 06:58:41;;;;;;;47.53;44.45;;;15.30;99.90;;;;;;4943587;28;20050;-72
2023/10/09 07:01:23;;;;;;;47.95;44.65;;;15.30;99.90;;;;;;4966012;28;20522;-72
2023/10/09 07:03:52;;;;;;;52.88;49.38;;;15.30;99.90;;;;;;4973360;28;20038;-71
2023/10/09 07:06:47;;;;;;;67.90;64.10;;;15.50;99.90;;;;;;4974423;28;20035;-71
2023/10/09 07:15:01;;;;;;;50.13;46.28;;;16.00;99.90;;;;;;4964301;28;20047;-71
2023/10/09 07:17:26;;;;;;;66.90;62.45;;;16.20;99.90;;;;;;4973425;28;20043;-71
2023/10/09 07:25:09;;;;;;;49.80;46.13;;;16.80;99.90;;;;;;4965904;28;20035;-71
2023/10/09 07:27:53;;;;;;;59.63;55.40;;;16.90;99.90;;;;;;4974424;28;20495;-71
2023/10/09 07:30:41;;;;;;;38.95;36.08;;;17.20;99.90;;;;;;4972908;28;20027;-71
2023/10/09 07:38:35;;;;;;;84.05;78.57;;;18.20;99.90;;;;;;4980908;28;20106;-71
2023/10/09 07:48:55;;;;;;;85.22;77.45;;;19.30;99.90;;;;;;4964942;28;20038;-71
2023/10/09 07:51:31;;;;;;;78.75;73.22;;;19.50;99.90;;;;;;4974232;28;20046;-66
2023/10/09 07:54:07;;;;;;;87.35;81.63;;;19.70;99.90;;;;;;4963533;28;20380;-67
2023/10/09 07:56:45;;;;;;;91.88;86.50;;;19.90;99.90;;;;;;4965481;28;20049;-67
2023/10/09 07:59:11;;;;;;;113.20;106.78;;;20.00;99.90;;;;;;4973725;28;20038;-68
2023/10/09 08:01:54;;;;;;;116.90;110.07;;;20.00;99.90;;;;;;4962075;28;20508;-68
2023/10/09 08:07:09;;;;;;;118.75;111.93;;;19.50;99.90;;;;;;4962212;28;20107;-67
2023/10/09 08:09:48;;;;;;;93.55;87.45;;;19.30;99.90;;;;;;4965809;28;20047;-67
2023/10/09 08:12:38;;;;;;;110.93;104.35;;;19.30;99.90;;;;;;4965705;28;20476;-67
2023/10/09 08:17:54;;;;;;;124.90;118.00;;;19.50;99.90;;;;;;4967773;28;20027;-70
2023/10/09 08:20:26;;;;;;;171.63;161.23;;;19.80;99.90;;;;;;4954370;28;20496;-71
2023/10/09 08:22:55;;;;;;;164.63;154.85;;;20.10;99.90;;;;;;4955156;28;20449;-70
2023/10/09 08:25:31;;;;;;;155.25;146.77;;;20.30;99.90;;;;;;4961742;28;20043;-71
2023/10/09 08:30:41;;;;;;;216.32;204.25;;;20.40;99.90;;;;;;4973423;28;20027;-70
2023/10/09 08:36:01;;;;;;;149.38;141.15;;;20.70;99.90;;;;;;4959898;28;20444;-71
2023/10/09 08:38:33;;;;;;;166.27;156.57;;;20.80;99.90;;;;;;4965740;28;20038;-73
2023/10/09 08:41:14;;;;;;;187.95;177.60;;;20.90;99.90;;;;;;4973255;28;20539;-75
2023/10/09 08:43:40;;;;;;;;;;;21.00;99.90;;;;;;4974293;28;20039;-72
2023/10/09 08:46:06;;;;;;;198.05;186.60;;;21.00;99.90;;;;;;4963643;28;19921;-71
2023/10/09 08:48:32;;;;;;;197.25;186.07;;;21.00;99.90;;;;;;4957287;28;20078;-68
2023/10/09 08:51:00;;;;;;;232.75;219.00;;;20.90;99.90;;;;;;4979747;28;20047;-66
2023/10/09 08:53:27;;;;;;;243.18;228.85;;;20.90;99.90;;;;;;4970652;28;20145;-66
2023/10/09 08:55:55;;;;;;;249.77;234.07;;;20.90;99.90;;;;;;4961894;28;20038;-66
2023/10/09 08:58:26;;;;;;;270.50;255.35;;;21.00;99.90;;;;;;4971777;28;20058;-67
2023/10/09 09:00:55;;;;;;;266.88;251.13;;;21.00;99.90;;;;;;4958501;28;20051;-66
2023/10/09 09:03:23;;;;;;;258.55;244.20;;;21.00;99.90;;;;;;4954011;29;20038;-66
2023/10/09 09:06:02;;;;;;;275.60;259.60;;;21.00;99.90;;;;;;4959116;28;20038;-67
2023/10/09 09:08:30;;;;;;;283.45;268.17;;;21.00;99.90;;;;;;4973448;28;20035;-66
2023/10/09 09:11:11;;;;;;;318.13;300.85;;;21.20;99.90;;;;;;4968283;28;20015;-67
2023/10/09 09:13:41;;;;;;;297.67;281.70;;;21.30;99.90;;;;;;4981287;28;20047;-66
2023/10/09 09:16:20;;;;;;;323.10;305.33;;;21.40;99.90;;;;;;4963759;28;20400;-66
2023/10/09 09:19:04;;;;;;;365.92;344.80;;;21.40;99.90;;;;;;4954157;29;20035;-66
2023/10/09 09:21:38;;;;;;;353.67;333.67;;;21.50;99.90;;;;;;4963736;28;20054;-67
2023/10/09 09:25:00;;;;;;;306.35;289.75;;;21.40;99.90;;;;;;4958724;28;20035;-67
2023/10/09 09:27:00;;;;;;;296.80;281.05;;;21.30;99.90;;;;;;4961714;28;20054;-66
2023/10/09 09:29:38;;;;;;;297.63;281.73;;;21.30;99.90;;;;;;4965360;28;20480;-67
2023/10/09 09:32:39;;;;;;;316.08;298.95;;;21.20;99.90;;;;;;4958043;28;20039;-66
2023/10/09 09:35:00;;;;;;;313.40;296.33;;;21.10;99.90;;;;;;4961950;28;20050;-67
2023/10/09 09:37:28;;;;;;;313.17;296.65;;;21.10;99.90;;;;;;4958677;28;20030;-66
2023/10/09 09:40:10;;;;;;;315.60;297.92;;;21.20;99.90;;;;;;4964898;28;20046;-66
2023/10/09 09:42:37;;;;;;;323.75;306.10;;;21.30;99.90;;;;;;4967871;28;20054;-66
2023/10/09 09:45:04;;;;;;;346.88;327.00;;;21.40;99.90;;;;;;4951561;28;20042;-66
2023/10/09 09:47:35;;;;;;;338.33;320.02;;;21.50;99.90;;;;;;4986246;28;20046;-66
2023/10/09 09:50:11;;;;;;;367.35;346.92;;;21.50;99.90;;;;;;4972000;28;20035;-66
2023/10/09 09:52:38;;;;;;;354.38;334.50;;;21.60;99.90;;;;;;4970904;28;20047;-66
2023/10/09 09:55:07;;;;;;;358.52;337.85;;;21.70;99.90;;;;;;4961956;28;20031;-66
2023/10/09 09:57:39;;;;;;;378.25;356.70;;;21.70;99.90;;;;;;4968042;28;20039;-67
2023/10/09 10:00:08;;;;;;;350.70;331.20;;;21.80;99.90;;;;;;4956317;28;20392;-68
2023/10/09 10:02:37;;;;;;;349.00;329.55;;;21.90;99.90;;;;;;4962947;28;20388;-68
2023/10/09 10:05:06;;;;;;;357.25;337.10;;;21.90;99.90;;;;;;4959092;28;20034;-67
2023/10/09 10:07:42;;;;;;;360.17;339.02;;;21.90;99.90;;;;;;4957214;28;20480;-68
2023/10/09 10:10:37;;;;;;;366.10;344.45;;;21.90;99.90;;;;;;4964051;28;20047;-68
2023/10/09 10:13:04;;;;;;;372.25;350.90;;;22.00;99.90;;;;;;4956989;28;20062;-68
2023/10/09 10:15:58;;;;;;;337.60;318.90;;;22.10;99.90;;;;;;4955962;28;20039;-68
2023/10/09 10:18:24;;;;;;;365.02;344.08;;;22.10;99.90;;;;;;4975653;28;20046;-67
2023/10/09 10:21:15;;;;;;;325.02;306.83;;;22.10;99.90;;;;;;4975688;28;20042;-68
2023/10/09 10:23:46;;;;;;;317.50;300.35;;;22.20;99.90;;;;;;4975993;28;20039;-67
2023/10/09 10:26:26;;;;;;;343.55;324.63;;;22.20;99.90;;;;;;4965450;28;20039;-68
2023/10/09 10:29:23;;;;;;;329.38;310.98;;;22.20;99.90;;;;;;4974304;28;20046;-68
2023/10/09 10:32:08;;;;;;;325.30;307.63;;;22.30;99.90;;;;;;4969592;28;20035;-68
2023/10/09 10:34:58;;;;;;;339.63;321.67;;;22.40;99.90;;;;;;4957706;28;20066;-68
2023/10/09 10:38:11;;;;;;;321.33;304.03;;;22.50;99.90;;;;;;4965577;28;20034;-68
2023/10/09 10:40:38;;;;;;;321.33;303.10;;;22.50;99.90;;;;;;4972773;28;20043;-66
2023/10/09 10:43:13;;;;;;;321.17;303.73;;;22.50;99.90;;;;;;4955607;29;20055;-67
2023/10/09 10:45:45;;;;;;;347.42;328.20;;;22.50;99.90;;;;;;4958130;28;20036;-68
2023/10/09 10:48:37;;;;;;;342.65;324.85;;;22.50;99.90;;;;;;4975349;28;20444;-68
2023/10/09 10:51:04;;;;;;;336.42;317.38;;;22.60;99.90;;;;;;4968251;28;20039;-69
2023/10/09 10:53:47;;;;;;;348.95;330.80;;;22.70;99.90;;;;;;4968091;28;20035;-68
2023/10/09 11:01:50;;;;;;;355.45;335.60;;;22.90;99.90;;;;;;4964428;28;20062;-69
2023/10/09 11:04:24;;;;;;;348.80;329.88;;;23.00;99.90;;;;;;4967860;28;20031;-69
2023/10/09 11:07:00;;;;;;;433.23;409.02;;;23.00;99.90;;;;;;4961391;28;20058;-69
2023/10/09 11:09:35;;;;;;;447.77;423.05;;;23.00;99.90;;;;;;4969185;28;20119;-70
2023/10/09 11:12:21;;;;;;;490.00;463.02;;;23.10;99.90;;;;;;4966205;28;20034;-68
2023/10/09 11:15:05;;;;;;;491.70;464.15;;;23.10;99.90;;;;;;4967720;28;20054;-68
2023/10/09 11:17:32;;;;;;;550.38;519.53;;;23.10;99.90;;;;;;4946926;28;20052;-69
2023/10/09 11:20:22;;;;;;;559.55;527.95;;;23.10;99.90;;;;;;4935219;29;20043;-69
2023/10/09 11:23:14;;;;;;;632.20;594.85;;;23.20;99.90;;;;;;4934799;29;20044;-69
2023/10/09 11:25:32;;;;;;;1999.90;999.90;;;23.20;99.90;;;;;;4934748;28;20047;-69
2023/10/09 11:28:15;;;;;;;693.55;651.97;;;23.30;99.90;;;;;;4921458;29;20039;-69
2023/10/09 11:30:45;;;;;;;1999.90;999.90;;;23.40;99.90;;;;;;4939106;28;20039;-69
2023/10/09 11:33:14;;;;;;;1999.90;999.90;;;23.50;99.90;;;;;;4947833;28;20047;-69
2023/10/09 11:35:42;;;;;;;1999.90;999.90;;;23.50;99.90;;;;;;4939764;29;20395;-69
2023/10/09 11:38:21;;;;;;;1999.90;999.90;;;23.60;99.90;;;;;;4953413;29;20046;-69
2023/10/09 11:43:51;;;;;;;1999.90;999.90;;;23.70;99.90;;;;;;4937940;29;20527;-72
2023/10/09 11:46:13;;;;;;;1999.90;999.90;;;23.80;99.90;;;;;;4942337;28;20038;-71
2023/10/09 11:49:15;;;;;;;1999.90;999.90;;;24.00;99.90;;;;;;4954485;28;20057;-71
2023/10/09 11:51:31;;;;;;;1999.90;999.90;;;24.10;99.90;;;;;;4943459;29;20043;-71
2023/10/09 11:54:00;;;;;;;1999.90;999.90;;;24.30;99.90;;;;;;4938939;29;20027;-72
2023/10/09 11:56:27;;;;;;;1999.90;999.90;;;24.30;99.90;;;;;;4944146;28;20031;-71
2023/10/09 11:58:53;;;;;;;1999.90;999.90;;;24.40;99.90;;;;;;4946404;29;20047;-71
2023/10/09 12:01:23;;;;;;;1999.90;999.90;;;24.50;99.90;;;;;;4958059;28;20050;-72
2023/10/09 12:03:50;;;;;;;1999.90;999.90;;;24.60;99.90;;;;;;4954168;29;20476;-71
2023/10/09 12:06:19;;;;;;;1999.90;999.90;;;24.60;99.90;;;;;;4954762;28;20055;-72
2023/10/09 12:08:48;;;;;;;1999.90;999.90;;;24.70;99.90;;;;;;4954329;28;20047;-72
2023/10/09 12:11:22;;;;;;;1999.90;999.90;;;24.80;99.90;;;;;;4962184;28;20057;-72
2023/10/09 12:13:56;;;;;;;1999.90;999.90;;;24.80;99.90;;;;;;4972236;28;20065;-72
2023/10/09 12:16:27;;;;;;;1999.90;999.90;;;24.90;99.90;;;;;;4963072;28;20050;-70
2023/10/09 12:18:54;;;;;;;1999.90;999.90;;;24.90;99.90;;;;;;4973862;28;20039;-71
2023/10/09 12:21:21;;;;;;;1999.90;999.90;;;25.00;99.90;;;;;;4970939;28;20046;-72
2023/10/09 12:23:47;;;;;;;1999.90;999.90;;;25.10;99.90;;;;;;4963990;28;20027;-71
2023/10/09 12:26:16;;;;;;;1999.90;999.90;;;25.20;99.90;;;;;;4960962;28;20050;-72
2023/10/09 12:28:45;;;;;;;1999.90;999.90;;;25.30;99.90;;;;;;4973068;28;20041;-72
2023/10/09 12:31:15;;;;;;;1999.90;999.90;;;25.30;99.90;;;;;;4963834;28;20499;-72
2023/10/09 12:33:41;;;;;;;1999.90;999.90;;;25.50;99.90;;;;;;4954216;29;20039;-72
2023/10/09 12:36:19;;;;;;;1999.90;999.90;;;25.60;99.90;;;;;;4953956;28;20027;-73
2023/10/09 12:38:52;;;;;;;1999.90;999.90;;;25.70;99.90;;;;;;4953997;28;20039;-73
2023/10/09 12:41:25;;;;;;;1999.90;999.90;;;25.90;99.90;;;;;;4959814;28;20070;-73
2023/10/09 12:43:54;;;;;;;1999.90;999.90;;;26.20;99.90;;;;;;4973361;28;20050;-73
2023/10/09 12:46:25;;;;;;;1999.90;999.90;;;26.20;99.90;;;;;;4963151;28;20035;-73
2023/10/09 12:48:54;;;;;;;1999.90;999.90;;;26.30;99.90;;;;;;4953938;28;20035;-73
2023/10/09 12:51:20;;;;;;;1999.90;999.90;;;26.30;99.90;;;;;;4962042;28;20492;-73
2023/10/09 12:53:50;;;;;;;1999.90;999.90;;;26.50;99.60;;;;;;4953882;29;20042;-73
2023/10/09 12:56:18;;;;;;;1999.90;999.90;;;26.60;99.40;;;;;;4953840;28;20054;-73
2023/10/09 12:58:53;;;;;;;1999.90;999.90;;;26.80;99.90;;;;;;4953853;28;20283;-74
2023/10/09 13:01:20;;;;;;;1999.90;999.90;;;27.10;99.40;;;;;;4957939;28;20047;-73
2023/10/09 13:03:49;;;;;;;1999.90;999.90;;;27.00;98.60;;;;;;4973478;28;20078;-73
2023/10/09 13:06:15;;;;;;;1999.90;999.90;;;26.80;98.30;;;;;;4972628;28;20050;-73
2023/10/09 13:08:42;;;;;;;1999.90;999.90;;;26.80;98.20;;;;;;4972698;28;20039;-73
2023/10/09 13:11:12;;;;;;;1999.90;999.90;;;26.60;97.50;;;;;;4965643;28;20411;-73
2023/10/09 13:13:42;;;;;;;1999.90;999.90;;;26.60;97.50;;;;;;4954805;28;20061;-73
2023/10/09 13:16:11;;;;;;;1999.90;999.90;;;26.60;97.70;;;;;;4960215;28;20047;-73
2023/10/09 13:18:41;;;;;;;1999.90;999.90;;;26.60;99.10;;;;;;4973227;28;20039;-73
2023/10/09 13:21:07;;;;;;;1999.90;999.90;;;26.80;99.20;;;;;;4964599;28;20047;-73
2023/10/09 13:23:40;;;;;;;1999.90;999.90;;;26.80;99.00;;;;;;4968070;28;20049;-73
2023/10/09 13:26:17;;;;;;;1999.90;999.90;;;26.80;98.50;;;;;;4965659;28;20040;-73
2023/10/09 13:28:47;;;;;;;1999.90;999.90;;;26.90;98.40;;;;;;4968646;28;20506;-73
2023/10/09 13:31:14;;;;;;;1999.90;999.90;;;26.90;97.50;;;;;;4964630;28;20035;-73
2023/10/09 13:33:41;;;;;;;1999.90;999.90;;;26.80;97.80;;;;;;4957619;28;20043;-73
2023/10/09 13:36:19;;;;;;;1999.90;999.90;;;26.80;97.10;;;;;;4965482;28;20047;-72
2023/10/09 13:38:45;;;;;;;1999.90;999.90;;;26.70;97.80;;;;;;4976304;28;20031;-72
2023/10/09 13:41:17;;;;;;;1999.90;999.90;;;26.90;99.00;;;;;;4975545;28;20391;-72
2023/10/09 13:43:43;;;;;;;1999.90;999.90;;;26.90;97.00;;;;;;4976606;28;20058;-72
2023/10/09 13:46:11;;;;;;;1999.90;999.90;;;26.80;96.60;;;;;;4967437;28;20039;-73
2023/10/09 13:48:43;;;;;;;1999.90;999.90;;;26.70;95.90;;;;;;4956692;28;20404;-72
2023/10/09 13:51:18;;;;;;;1999.90;999.90;;;26.60;96.90;;;;;;4961732;28;20067;-72
2023/10/09 13:53:48;;;;;;;1999.90;999.90;;;26.50;95.10;;;;;;4976529;28;20046;-72
2023/10/09 13:56:18;;;;;;;1999.90;999.90;;;26.40;95.10;;;;;;4976169;28;20058;-72
2023/10/09 13:58:45;;;;;;;1999.90;999.90;;;26.50;96.50;;;;;;4976253;28;20045;-72
2023/10/09 14:01:20;;;;;;;1999.90;999.90;;;26.50;96.10;;;;;;4970847;28;20030;-72
2023/10/09 14:03:49;;;;;;;1999.90;999.90;;;26.50;95.80;;;;;;4958342;28;20047;-71
2023/10/09 14:06:19;;;;;;;1999.90;999.90;;;26.60;96.00;;;;;;4958865;28;20043;-72
2023/10/09 14:08:46;;;;;;;1999.90;999.90;;;26.60;95.20;;;;;;4957223;28;20396;-72
2023/10/09 14:11:13;;;;;;;1999.90;999.90;;;26.60;94.60;;;;;;4964495;28;20506;-71
2023/10/09 14:13:40;;;;;;;1999.90;999.90;;;26.60;93.90;;;;;;4975745;28;20054;-71
2023/10/09 14:16:06;;;;;;;1999.90;999.90;;;26.50;93.80;;;;;;4967773;28;20051;-72
2023/10/09 14:18:33;;;;;;;1999.90;999.90;;;26.60;95.00;;;;;;4966944;28;20491;-71
2023/10/09 14:21:06;;;;;;;1999.90;999.90;;;26.80;95.30;;;;;;4975139;28;20551;-72
2023/10/09 14:23:34;;;;;;;1999.90;999.90;;;26.90;95.00;;;;;;4973980;28;20054;-72
2023/10/09 14:26:01;;;;;;;1999.90;999.90;;;26.90;93.70;;;;;;4962684;28;20047;-72
2023/10/09 14:28:28;;;;;;;1999.90;999.90;;;27.00;94.40;;;;;;4974539;28;20046;-71
2023/10/09 14:30:59;;;;;;;1999.90;999.90;;;27.00;95.40;;;;;;4972656;28;20035;-72
2023/10/09 14:33:27;;;;;;;1999.90;999.90;;;27.00;95.20;;;;;;4969209;28;20047;-72
2023/10/09 14:35:54;;;;;;;1999.90;999.90;;;26.90;95.50;;;;;;4964378;28;20050;-72
2023/10/09 14:38:27;;;;;;;1999.90;999.90;;;27.10;95.90;;;;;;4975665;28;20039;-72
2023/10/09 14:40:59;;;;;;;1999.90;999.90;;;27.10;95.00;;;;;;4972812;28;20038;-72
2023/10/09 14:43:29;;;;;;;1999.90;999.90;;;27.20;95.20;;;;;;4969101;28;20051;-72
2023/10/09 14:45:55;;;;;;;1999.90;999.90;;;27.10;95.20;;;;;;4969877;28;20042;-72
2023/10/09 14:48:25;;;;;;;1999.90;999.90;;;27.00;94.40;;;;;;4967482;28;20034;-72
2023/10/09 14:51:04;;;;;;;1999.90;999.90;;;27.00;95.70;;;;;;4960827;28;20046;-72
2023/10/09 14:53:30;;;;;;;1999.90;999.90;;;27.00;96.60;;;;;;4974623;28;20038;-72
2023/10/09 14:55:56;;;;;;;1999.90;999.90;;;27.00;95.30;;;;;;4973048;28;20037;-72
2023/10/09 14:58:25;;;;;;;1999.90;999.90;;;27.00;95.00;;;;;;4973186;28;20480;-72
2023/10/09 15:00:52;;;;;;;1999.90;999.90;;;26.90;94.70;;;;;;4959721;28;20400;-72
2023/10/09 15:03:19;;;;;;;1999.90;999.90;;;26.90;95.00;;;;;;4973549;28;20058;-72